sensor_id;sensor_type;location;lat;lon;timestamp;temperature;humidity
6102;DHT22;3081;50.584;7.032;2022-10-22T00:01:03;15.60;99.90
6102;DHT22;3081;50.584;7.032;2022-10-22T00:03:30;15.60;99.90
6102;DHT22;3081;50.584;7.032;2022-10-22T00:05:57;15.60;99.90
6102;DHT22;3081;50.584;7.032;2022-10-22T00:08:24;15.60;99.90
6102;DHT22;3081;50.584;7.032;2022-10-22T00:10:51;15.50;99.90
6102;DHT22;3081;50.584;7.032;2022-10-22T00:13:18;15.50;99.90
6102;DHT22;3081;50.584;7.032;2022-10-22T00:15:47;15.40;99.90
6102;DHT22;3081;50.584;7.032;2022-10-22T00:18:14;15.40;99.90
6102;DHT22;3081;50.584;7.032;2022-10-22T00:20:41;15.40;99.90
6102;DHT22;3081;50.584;7.032;2022-10-22T00:23:08;15.40;99.90
6102;DHT22;3081;50.584;7.032;2022-10-22T00:25:35;15.40;99.90
6102;DHT22;3081;50.584;7.032;2022-10-22T00:28:03;15.50;99.90
6102;DHT22;3081;50.584;7.032;2022-10-22T00:30:30;15.50;99.90
6102;DHT22;3081;50.584;7.032;2022-10-22T00:32:58;15.50;99.90
6102;DHT22;3081;50.584;7.032;2022-10-22T00:35:25;15.50;99.90
6102;DHT22;3081;50.584;7.032;2022-10-22T00:37:52;15.60;99.90
6102;DHT22;3081;50.584;7.032;2022-10-22T00:40:19;15.60;99.90
6102;DHT22;3081;50.584;7.032;2022-10-22T00:42:46;15.60;99.90
6102;DHT22;3081;50.584;7.032;2022-10-22T00:45:18;15.60;99.90
6102;DHT22;3081;50.584;7.032;2022-10-22T00:47:49;15.70;99.90
6102;DHT22;3081;50.584;7.032;2022-10-22T00:50:20;15.70;99.90
6102;DHT22;3081;50.584;7.032;2022-10-22T00:52:49;15.70;99.90
6102;DHT22;3081;50.584;7.032;2022-10-22T00:55:17;15.70;99.90
6102;DHT22;3081;50.584;7.032;2022-10-22T00:57:45;15.80;99.90
6102;DHT22;3081;50.584;7.032;2022-10-22T01:00:13;15.80;99.90
6102;DHT22;3081;50.584;7.032;2022-10-22T01:02:40;15.80;99.90
6102;DHT22;3081;50.584;7.032;2022-10-22T01:05:07;15.80;99.90
6102;DHT22;3081;50.584;7.032;2022-10-22T01:07:41;15.70;99.90
6102;DHT22;3081;50.584;7.032;2022-10-22T01:10:21;15.70;99.90
6102;DHT22;3081;50.584;7.032;2022-10-22T01:12:58;15.60;99.90
6102;DHT22;3081;50.584;7.032;2022-10-22T01:15:34;15.50;99.90
6102;DHT22;3081;50.584;7.032;2022-10-22T01:18:06;15.40;99.90
6102;DHT22;3081;50.584;7.032;2022-10-22T01:20:55;15.20;99.90
6102;DHT22;3081;50.584;7.032;2022-10-22T01:26:46;15.10;99.90
6102;DHT22;3081;50.584;7.032;2022-10-22T01:29:20;15.10;99.90
6102;DHT22;3081;50.584;7.032;2022-10-22T01:31:51;15.10;99.90
6102;DHT22;3081;50.584;7.032;2022-10-22T01:34:22;15.00;99.90
6102;DHT22;3081;50.584;7.032;2022-10-22T01:36:50;15.00;99.90
6102;DHT22;3081;50.584;7.032;2022-10-22T01:39:19;15.00;99.90
6102;DHT22;3081;50.584;7.032;2022-10-22T01:41:48;15.00;99.90
6102;DHT22;3081;50.584;7.032;2022-10-22T01:44:25;15.00;99.90
6102;DHT22;3081;50.584;7.032;2022-10-22T01:46:57;15.00;99.90
6102;DHT22;3081;50.584;7.032;2022-10-22T01:49:33;15.00;99.90
6102;DHT22;3081;50.584;7.032;2022-10-22T01:52:13;15.00;99.90
6102;DHT22;3081;50.584;7.032;2022-10-22T01:54:45;15.00;99.90
6102;DHT22;3081;50.584;7.032;2022-10-22T01:57:19;15.00;99.90
6102;DHT22;3081;50.584;7.032;2022-10-22T01:59:56;15.00;99.90
6102;DHT22;3081;50.584;7.032;2022-10-22T02:02:32;15.00;99.90
6102;DHT22;3081;50.584;7.032;2022-10-22T02:05:02;15.00;99.90
6102;DHT22;3081;50.584;7.032;2022-10-22T02:07:33;15.10;99.90
6102;DHT22;3081;50.584;7.032;2022-10-22T02:10:02;15.10;99.90
6102;DHT22;3081;50.584;7.032;2022-10-22T02:12:30;15.20;99.90
6102;DHT22;3081;50.584;7.032;2022-10-22T02:14:59;15.20;99.90
6102;DHT22;3081;50.584;7.032;2022-10-22T02:17:30;15.20;99.90
6102;DHT22;3081;50.584;7.032;2022-10-22T02:20:01;15.10;99.90
6102;DHT22;3081;50.584;7.032;2022-10-22T02:22:29;15.10;99.90
6102;DHT22;3081;50.584;7.032;2022-10-22T02:24:56;15.00;99.90
6102;DHT22;3081;50.584;7.032;2022-10-22T02:27:28;14.90;99.90
6102;DHT22;3081;50.584;7.032;2022-10-22T02:30:03;14.90;99.90
6102;DHT22;3081;50.584;7.032;2022-10-22T02:32:33;15.10;99.90
6102;DHT22;3081;50.584;7.032;2022-10-22T02:35:03;15.20;99.90
6102;DHT22;3081;50.584;7.032;2022-10-22T02:37:30;15.30;99.90
6102;DHT22;3081;50.584;7.032;2022-10-22T02:39:57;15.40;99.90
6102;DHT22;3081;50.584;7.032;2022-10-22T02:42:25;15.40;99.90
6102;DHT22;3081;50.584;7.032;2022-10-22T02:44:52;15.40;99.90
6102;DHT22;3081;50.584;7.032;2022-10-22T02:47:20;15.50;99.90
6102;DHT22;3081;50.584;7.032;2022-10-22T02:49:47;15.40;99.90
6102;DHT22;3081;50.584;7.032;2022-10-22T02:52:14;15.40;99.90
6102;DHT22;3081;50.584;7.032;2022-10-22T02:54:41;15.50;99.90
6102;DHT22;3081;50.584;7.032;2022-10-22T02:57:08;15.40;99.90
6102;DHT22;3081;50.584;7.032;2022-10-22T02:59:35;15.50;99.90
6102;DHT22;3081;50.584;7.032;2022-10-22T03:02:01;15.40;99.90
6102;DHT22;3081;50.584;7.032;2022-10-22T03:04:30;15.40;99.90
6102;DHT22;3081;50.584;7.032;2022-10-22T03:06:57;15.40;99.90
6102;DHT22;3081;50.584;7.032;2022-10-22T03:09:24;15.40;99.90
6102;DHT22;3081;50.584;7.032;2022-10-22T03:11:51;15.40;99.90
6102;DHT22;3081;50.584;7.032;2022-10-22T03:14:18;15.30;99.90
6102;DHT22;3081;50.584;7.032;2022-10-22T03:16:45;15.30;99.90
6102;DHT22;3081;50.584;7.032;2022-10-22T03:19:11;15.30;99.90
6102;DHT22;3081;50.584;7.032;2022-10-22T03:21:43;15.20;99.90
6102;DHT22;3081;50.584;7.032;2022-10-22T03:24:13;15.20;99.90
6102;DHT22;3081;50.584;7.032;2022-10-22T03:26:42;15.20;99.90
6102;DHT22;3081;50.584;7.032;2022-10-22T03:29:12;15.20;99.90
6102;DHT22;3081;50.584;7.032;2022-10-22T03:31:40;15.10;99.90
6102;DHT22;3081;50.584;7.032;2022-10-22T03:34:07;15.00;99.90
6102;DHT22;3081;50.584;7.032;2022-10-22T03:36:36;14.90;99.90
6102;DHT22;3081;50.584;7.032;2022-10-22T03:39:05;14.80;99.90
6102;DHT22;3081;50.584;7.032;2022-10-22T03:41:33;14.60;99.90
6102;DHT22;3081;50.584;7.032;2022-10-22T03:44:01;14.40;99.90
6102;DHT22;3081;50.584;7.032;2022-10-22T03:46:28;14.20;99.90
6102;DHT22;3081;50.584;7.032;2022-10-22T03:48:55;14.10;99.90
6102;DHT22;3081;50.584;7.032;2022-10-22T03:51:23;14.00;99.90
6102;DHT22;3081;50.584;7.032;2022-10-22T03:53:51;13.90;99.90
6102;DHT22;3081;50.584;7.032;2022-10-22T03:56:19;13.90;99.90
6102;DHT22;3081;50.584;7.032;2022-10-22T03:58:46;13.90;99.90
6102;DHT22;3081;50.584;7.032;2022-10-22T04:01:13;13.90;99.90
6102;DHT22;3081;50.584;7.032;2022-10-22T04:03:40;13.90;99.90
6102;DHT22;3081;50.584;7.032;2022-10-22T04:06:08;14.00;99.90
6102;DHT22;3081;50.584;7.032;2022-10-22T04:08:38;14.00;99.90
6102;DHT22;3081;50.584;7.032;2022-10-22T04:11:05;14.20;99.90
6102;DHT22;3081;50.584;7.032;2022-10-22T04:13:34;14.40;99.90
6102;DHT22;3081;50.584;7.032;2022-10-22T04:16:08;14.50;99.90
6102;DHT22;3081;50.584;7.032;2022-10-22T04:18:35;14.60;99.90
6102;DHT22;3081;50.584;7.032;2022-10-22T04:21:03;14.70;99.90
6102;DHT22;3081;50.584;7.032;2022-10-22T04:23:30;14.70;99.90
6102;DHT22;3081;50.584;7.032;2022-10-22T04:25:57;14.70;99.90
6102;DHT22;3081;50.584;7.032;2022-10-22T04:28:24;14.80;99.90
6102;DHT22;3081;50.584;7.032;2022-10-22T04:30:53;14.80;99.90
6102;DHT22;3081;50.584;7.032;2022-10-22T04:33:20;14.80;99.90
6102;DHT22;3081;50.584;7.032;2022-10-22T04:35:47;14.90;99.90
6102;DHT22;3081;50.584;7.032;2022-10-22T04:38:14;14.90;99.90
6102;DHT22;3081;50.584;7.032;2022-10-22T04:40:41;14.90;99.90
6102;DHT22;3081;50.584;7.032;2022-10-22T04:43:09;14.90;99.90
6102;DHT22;3081;50.584;7.032;2022-10-22T04:45:36;14.90;99.90
6102;DHT22;3081;50.584;7.032;2022-10-22T04:48:04;14.90;99.90
6102;DHT22;3081;50.584;7.032;2022-10-22T04:50:31;14.90;99.90
6102;DHT22;3081;50.584;7.032;2022-10-22T04:52:58;14.90;99.90
6102;DHT22;3081;50.584;7.032;2022-10-22T04:55:25;14.90;99.90
6102;DHT22;3081;50.584;7.032;2022-10-22T04:57:52;14.90;99.90
6102;DHT22;3081;50.584;7.032;2022-10-22T05:00:19;14.90;99.90
6102;DHT22;3081;50.584;7.032;2022-10-22T05:02:48;14.90;99.90
6102;DHT22;3081;50.584;7.032;2022-10-22T05:05:17;14.90;99.90
6102;DHT22;3081;50.584;7.032;2022-10-22T05:07:43;14.90;99.90
6102;DHT22;3081;50.584;7.032;2022-10-22T05:10:10;14.90;99.90
6102;DHT22;3081;50.584;7.032;2022-10-22T05:12:37;14.90;99.90
6102;DHT22;3081;50.584;7.032;2022-10-22T05:15:05;14.90;99.90
6102;DHT22;3081;50.584;7.032;2022-10-22T05:17:35;14.90;99.90
6102;DHT22;3081;50.584;7.032;2022-10-22T05:20:03;14.90;99.90
6102;DHT22;3081;50.584;7.032;2022-10-22T05:22:32;14.80;99.90
6102;DHT22;3081;50.584;7.032;2022-10-22T05:24:59;14.80;99.90
6102;DHT22;3081;50.584;7.032;2022-10-22T05:27:26;14.80;99.90
6102;DHT22;3081;50.584;7.032;2022-10-22T05:29:53;14.80;99.90
6102;DHT22;3081;50.584;7.032;2022-10-22T05:32:20;14.80;99.90
6102;DHT22;3081;50.584;7.032;2022-10-22T05:34:47;14.80;99.90
6102;DHT22;3081;50.584;7.032;2022-10-22T05:37:14;14.80;99.90
6102;DHT22;3081;50.584;7.032;2022-10-22T05:39:42;14.80;99.90
6102;DHT22;3081;50.584;7.032;2022-10-22T05:42:09;14.80;99.90
6102;DHT22;3081;50.584;7.032;2022-10-22T05:44:36;14.80;99.90
6102;DHT22;3081;50.584;7.032;2022-10-22T05:47:03;14.70;99.90
6102;DHT22;3081;50.584;7.032;2022-10-22T05:49:30;14.80;99.90
6102;DHT22;3081;50.584;7.032;2022-10-22T05:51:57;14.70;99.90
6102;DHT22;3081;50.584;7.032;2022-10-22T05:54:24;14.70;99.90
6102;DHT22;3081;50.584;7.032;2022-10-22T05:56:52;14.70;99.90
6102;DHT22;3081;50.584;7.032;2022-10-22T05:59:20;14.70;99.90
6102;DHT22;3081;50.584;7.032;2022-10-22T06:01:47;14.70;99.90
6102;DHT22;3081;50.584;7.032;2022-10-22T06:04:14;14.70;99.90
6102;DHT22;3081;50.584;7.032;2022-10-22T06:06:43;14.70;99.90
6102;DHT22;3081;50.584;7.032;2022-10-22T06:09:13;14.70;99.90
6102;DHT22;3081;50.584;7.032;2022-10-22T06:11:41;14.70;99.90
6102;DHT22;3081;50.584;7.032;2022-10-22T06:14:10;14.70;99.90
6102;DHT22;3081;50.584;7.032;2022-10-22T06:16:37;14.70;99.90
6102;DHT22;3081;50.584;7.032;2022-10-22T06:19:04;14.70;99.90
6102;DHT22;3081;50.584;7.032;2022-10-22T06:21:31;14.70;99.90
6102;DHT22;3081;50.584;7.032;2022-10-22T06:23:58;14.70;99.90
6102;DHT22;3081;50.584;7.032;2022-10-22T06:26:25;14.60;99.90
6102;DHT22;3081;50.584;7.032;2022-10-22T06:28:54;14.60;99.90
6102;DHT22;3081;50.584;7.032;2022-10-22T06:31:22;14.70;99.90
6102;DHT22;3081;50.584;7.032;2022-10-22T06:33:51;14.70;99.90
6102;DHT22;3081;50.584;7.032;2022-10-22T06:36:19;14.70;99.90
6102;DHT22;3081;50.584;7.032;2022-10-22T06:38:46;14.70;99.90
6102;DHT22;3081;50.584;7.032;2022-10-22T06:41:15;14.70;99.90
6102;DHT22;3081;50.584;7.032;2022-10-22T06:43:43;14.70;99.90
6102;DHT22;3081;50.584;7.032;2022-10-22T06:46:12;14.70;99.90
6102;DHT22;3081;50.584;7.032;2022-10-22T06:48:41;14.70;99.90
6102;DHT22;3081;50.584;7.032;2022-10-22T06:51:09;14.70;99.90
6102;DHT22;3081;50.584;7.032;2022-10-22T06:53:38;14.60;99.90
6102;DHT22;3081;50.584;7.032;2022-10-22T06:56:05;14.60;99.90
6102;DHT22;3081;50.584;7.032;2022-10-22T06:58:32;14.60;99.90
6102;DHT22;3081;50.584;7.032;2022-10-22T07:01:00;14.60;99.90
6102;DHT22;3081;50.584;7.032;2022-10-22T07:03:28;14.60;99.90
6102;DHT22;3081;50.584;7.032;2022-10-22T07:05:59;14.60;99.90
6102;DHT22;3081;50.584;7.032;2022-10-22T07:08:26;14.70;99.90
6102;DHT22;3081;50.584;7.032;2022-10-22T07:10:53;14.70;99.90
6102;DHT22;3081;50.584;7.032;2022-10-22T07:13:20;14.80;99.90
6102;DHT22;3081;50.584;7.032;2022-10-22T07:15:51;14.90;99.90
6102;DHT22;3081;50.584;7.032;2022-10-22T07:18:18;15.00;99.90
6102;DHT22;3081;50.584;7.032;2022-10-22T07:20:46;15.10;99.90
6102;DHT22;3081;50.584;7.032;2022-10-22T07:23:14;15.30;99.90
6102;DHT22;3081;50.584;7.032;2022-10-22T07:25:42;15.60;99.90
6102;DHT22;3081;50.584;7.032;2022-10-22T07:28:09;15.80;99.90
6102;DHT22;3081;50.584;7.032;2022-10-22T07:30:37;16.00;99.90
6102;DHT22;3081;50.584;7.032;2022-10-22T07:33:05;16.30;99.90
6102;DHT22;3081;50.584;7.032;2022-10-22T07:35:32;16.50;99.90
6102;DHT22;3081;50.584;7.032;2022-10-22T07:38:00;16.80;99.90
6102;DHT22;3081;50.584;7.032;2022-10-22T07:40:28;17.70;99.90
6102;DHT22;3081;50.584;7.032;2022-10-22T07:42:55;18.40;99.90
6102;DHT22;3081;50.584;7.032;2022-10-22T07:45:22;18.70;99.90
6102;DHT22;3081;50.584;7.032;2022-10-22T07:47:49;19.00;99.90
6102;DHT22;3081;50.584;7.032;2022-10-22T07:50:16;18.80;99.90
6102;DHT22;3081;50.584;7.032;2022-10-22T07:52:43;18.30;99.90
6102;DHT22;3081;50.584;7.032;2022-10-22T07:55:11;17.70;99.90
6102;DHT22;3081;50.584;7.032;2022-10-22T07:57:40;17.20;99.90
6102;DHT22;3081;50.584;7.032;2022-10-22T08:00:08;16.90;99.90
6102;DHT22;3081;50.584;7.032;2022-10-22T08:02:35;16.70;99.90
6102;DHT22;3081;50.584;7.032;2022-10-22T08:05:02;16.60;99.90
6102;DHT22;3081;50.584;7.032;2022-10-22T08:07:29;16.60;99.90
6102;DHT22;3081;50.584;7.032;2022-10-22T08:09:55;16.60;99.90
6102;DHT22;3081;50.584;7.032;2022-10-22T08:12:22;16.50;99.90
6102;DHT22;3081;50.584;7.032;2022-10-22T08:14:51;16.50;99.90
6102;DHT22;3081;50.584;7.032;2022-10-22T08:17:17;16.40;99.90
6102;DHT22;3081;50.584;7.032;2022-10-22T08:19:44;16.30;99.90
6102;DHT22;3081;50.584;7.032;2022-10-22T08:22:11;16.30;99.90
6102;DHT22;3081;50.584;7.032;2022-10-22T08:24:38;16.30;99.90
6102;DHT22;3081;50.584;7.032;2022-10-22T08:27:05;16.30;99.90
6102;DHT22;3081;50.584;7.032;2022-10-22T08:29:32;16.40;99.90
6102;DHT22;3081;50.584;7.032;2022-10-22T08:32:01;16.60;99.90
6102;DHT22;3081;50.584;7.032;2022-10-22T08:34:28;17.30;99.90
6102;DHT22;3081;50.584;7.032;2022-10-22T08:36:55;18.50;99.90
6102;DHT22;3081;50.584;7.032;2022-10-22T08:39:23;19.90;99.90
6102;DHT22;3081;50.584;7.032;2022-10-22T08:41:58;21.00;99.90
6102;DHT22;3081;50.584;7.032;2022-10-22T08:44:50;21.20;99.90
6102;DHT22;3081;50.584;7.032;2022-10-22T08:47:38;21.60;99.90
6102;DHT22;3081;50.584;7.032;2022-10-22T08:50:09;21.70;99.90
6102;DHT22;3081;50.584;7.032;2022-10-22T08:52:39;21.90;99.90
6102;DHT22;3081;50.584;7.032;2022-10-22T08:55:11;22.40;99.90
6102;DHT22;3081;50.584;7.032;2022-10-22T08:57:48;22.80;99.90
6102;DHT22;3081;50.584;7.032;2022-10-22T09:00:21;23.30;99.90
6102;DHT22;3081;50.584;7.032;2022-10-22T09:03:01;23.80;99.90
6102;DHT22;3081;50.584;7.032;2022-10-22T09:05:42;23.60;99.90
6102;DHT22;3081;50.584;7.032;2022-10-22T09:08:15;22.80;99.90
6102;DHT22;3081;50.584;7.032;2022-10-22T09:10:47;21.90;99.90
6102;DHT22;3081;50.584;7.032;2022-10-22T09:13:17;20.80;99.90
6102;DHT22;3081;50.584;7.032;2022-10-22T09:15:44;19.90;99.90
6102;DHT22;3081;50.584;7.032;2022-10-22T09:18:22;19.30;99.90
6102;DHT22;3081;50.584;7.032;2022-10-22T09:20:57;18.90;99.90
6102;DHT22;3081;50.584;7.032;2022-10-22T09:23:31;18.60;99.90
6102;DHT22;3081;50.584;7.032;2022-10-22T09:26:03;18.50;99.90
6102;DHT22;3081;50.584;7.032;2022-10-22T09:28:34;18.40;99.90
6102;DHT22;3081;50.584;7.032;2022-10-22T09:31:01;18.30;99.90
6102;DHT22;3081;50.584;7.032;2022-10-22T09:33:30;18.40;99.90
6102;DHT22;3081;50.584;7.032;2022-10-22T09:36:00;18.40;99.90
6102;DHT22;3081;50.584;7.032;2022-10-22T09:38:30;18.50;99.90
6102;DHT22;3081;50.584;7.032;2022-10-22T09:40:59;18.50;99.90
6102;DHT22;3081;50.584;7.032;2022-10-22T09:43:28;18.70;99.90
6102;DHT22;3081;50.584;7.032;2022-10-22T09:45:56;19.00;99.90
6102;DHT22;3081;50.584;7.032;2022-10-22T09:48:28;19.40;99.90
6102;DHT22;3081;50.584;7.032;2022-10-22T09:51:02;19.80;99.90
6102;DHT22;3081;50.584;7.032;2022-10-22T09:53:34;20.40;99.90
6102;DHT22;3081;50.584;7.032;2022-10-22T09:56:07;21.10;99.90
6102;DHT22;3081;50.584;7.032;2022-10-22T09:58:41;21.80;99.90
6102;DHT22;3081;50.584;7.032;2022-10-22T10:01:16;22.30;99.90
6102;DHT22;3081;50.584;7.032;2022-10-22T10:03:43;23.20;99.90
6102;DHT22;3081;50.584;7.032;2022-10-22T10:06:11;24.00;99.90
6102;DHT22;3081;50.584;7.032;2022-10-22T10:08:42;24.50;99.90
6102;DHT22;3081;50.584;7.032;2022-10-22T10:11:12;24.70;99.90
6102;DHT22;3081;50.584;7.032;2022-10-22T10:13:47;23.90;99.90
6102;DHT22;3081;50.584;7.032;2022-10-22T10:16:30;23.20;99.90
6102;DHT22;3081;50.584;7.032;2022-10-22T10:19:16;21.90;99.90
6102;DHT22;3081;50.584;7.032;2022-10-22T10:22:00;21.00;99.90
6102;DHT22;3081;50.584;7.032;2022-10-22T10:24:36;20.30;99.90
6102;DHT22;3081;50.584;7.032;2022-10-22T10:27:11;19.90;99.90
6102;DHT22;3081;50.584;7.032;2022-10-22T10:29:47;19.70;99.90
6102;DHT22;3081;50.584;7.032;2022-10-22T10:32:26;19.60;99.90
6102;DHT22;3081;50.584;7.032;2022-10-22T10:35:00;19.50;99.90
6102;DHT22;3081;50.584;7.032;2022-10-22T10:37:37;19.20;99.90
6102;DHT22;3081;50.584;7.032;2022-10-22T10:40:18;19.10;99.90
6102;DHT22;3081;50.584;7.032;2022-10-22T10:42:50;19.20;99.90
6102;DHT22;3081;50.584;7.032;2022-10-22T10:45:23;19.40;99.90
6102;DHT22;3081;50.584;7.032;2022-10-22T10:51:06;19.40;99.90
6102;DHT22;3081;50.584;7.032;2022-10-22T10:53:52;19.70;99.90
6102;DHT22;3081;50.584;7.032;2022-10-22T10:56:32;20.10;99.90
6102;DHT22;3081;50.584;7.032;2022-10-22T10:59:10;20.30;99.90
6102;DHT22;3081;50.584;7.032;2022-10-22T11:01:50;20.60;99.90
6102;DHT22;3081;50.584;7.032;2022-10-22T11:04:32;21.30;99.90
6102;DHT22;3081;50.584;7.032;2022-10-22T11:07:04;21.40;99.90
6102;DHT22;3081;50.584;7.032;2022-10-22T11:09:38;21.20;99.90
6102;DHT22;3081;50.584;7.032;2022-10-22T11:12:09;20.80;99.90
6102;DHT22;3081;50.584;7.032;2022-10-22T11:14:47;21.00;99.90
6102;DHT22;3081;50.584;7.032;2022-10-22T11:17:22;21.10;99.90
6102;DHT22;3081;50.584;7.032;2022-10-22T11:19:55;20.80;99.90
6102;DHT22;3081;50.584;7.032;2022-10-22T11:22:27;20.50;99.90
6102;DHT22;3081;50.584;7.032;2022-10-22T11:25:02;20.40;99.90
6102;DHT22;3081;50.584;7.032;2022-10-22T11:27:32;20.30;99.90
6102;DHT22;3081;50.584;7.032;2022-10-22T11:30:09;20.10;99.90
6102;DHT22;3081;50.584;7.032;2022-10-22T11:32:38;19.80;99.90
6102;DHT22;3081;50.584;7.032;2022-10-22T11:35:10;19.50;99.90
6102;DHT22;3081;50.584;7.032;2022-10-22T11:37:42;19.30;99.90
6102;DHT22;3081;50.584;7.032;2022-10-22T11:40:17;19.10;99.90
6102;DHT22;3081;50.584;7.032;2022-10-22T11:42:48;18.90;99.90
6102;DHT22;3081;50.584;7.032;2022-10-22T11:45:30;18.80;99.90
6102;DHT22;3081;50.584;7.032;2022-10-22T11:47:59;18.70;99.90
6102;DHT22;3081;50.584;7.032;2022-10-22T11:50:44;18.90;99.90
6102;DHT22;3081;50.584;7.032;2022-10-22T11:53:18;19.10;99.90
6102;DHT22;3081;50.584;7.032;2022-10-22T11:55:48;19.30;99.90
6102;DHT22;3081;50.584;7.032;2022-10-22T11:58:28;19.40;99.90
6102;DHT22;3081;50.584;7.032;2022-10-22T12:00:57;19.50;99.90
6102;DHT22;3081;50.584;7.032;2022-10-22T12:03:43;19.40;99.90
6102;DHT22;3081;50.584;7.032;2022-10-22T12:06:20;19.40;99.90
6102;DHT22;3081;50.584;7.032;2022-10-22T12:08:58;19.60;99.90
6102;DHT22;3081;50.584;7.032;2022-10-22T12:11:35;20.30;99.90
6102;DHT22;3081;50.584;7.032;2022-10-22T12:14:15;20.80;99.90
6102;DHT22;3081;50.584;7.032;2022-10-22T12:16:46;20.80;99.90
6102;DHT22;3081;50.584;7.032;2022-10-22T12:19:16;20.60;99.90
6102;DHT22;3081;50.584;7.032;2022-10-22T12:21:46;20.50;99.90
6102;DHT22;3081;50.584;7.032;2022-10-22T12:24:17;20.70;99.90
6102;DHT22;3081;50.584;7.032;2022-10-22T12:26:46;20.70;99.90
6102;DHT22;3081;50.584;7.032;2022-10-22T12:29:17;20.60;99.90
6102;DHT22;3081;50.584;7.032;2022-10-22T12:31:46;20.50;99.90
6102;DHT22;3081;50.584;7.032;2022-10-22T12:34:14;20.50;99.90
6102;DHT22;3081;50.584;7.032;2022-10-22T12:36:42;20.40;99.90
6102;DHT22;3081;50.584;7.032;2022-10-22T12:39:13;20.50;99.90
6102;DHT22;3081;50.584;7.032;2022-10-22T12:41:40;20.40;99.90
6102;DHT22;3081;50.584;7.032;2022-10-22T12:44:11;20.50;99.90
6102;DHT22;3081;50.584;7.032;2022-10-22T12:46:39;20.60;99.90
6102;DHT22;3081;50.584;7.032;2022-10-22T12:49:13;20.70;99.90
6102;DHT22;3081;50.584;7.032;2022-10-22T12:51:40;20.60;99.90
6102;DHT22;3081;50.584;7.032;2022-10-22T12:54:13;20.70;99.90
6102;DHT22;3081;50.584;7.032;2022-10-22T12:56:40;20.90;99.90
6102;DHT22;3081;50.584;7.032;2022-10-22T12:59:15;20.90;99.90
6102;DHT22;3081;50.584;7.032;2022-10-22T13:01:43;20.80;99.90
6102;DHT22;3081;50.584;7.032;2022-10-22T13:04:30;21.00;99.90
6102;DHT22;3081;50.584;7.032;2022-10-22T13:07:05;21.40;99.90
6102;DHT22;3081;50.584;7.032;2022-10-22T13:09:37;22.30;99.90
6102;DHT22;3081;50.584;7.032;2022-10-22T13:12:06;22.80;99.90
6102;DHT22;3081;50.584;7.032;2022-10-22T13:14:37;22.80;99.90
6102;DHT22;3081;50.584;7.032;2022-10-22T13:17:11;22.40;99.90
6102;DHT22;3081;50.584;7.032;2022-10-22T13:19:42;22.00;99.90
6102;DHT22;3081;50.584;7.032;2022-10-22T13:22:27;21.50;99.90
6102;DHT22;3081;50.584;7.032;2022-10-22T13:24:54;20.90;99.90
6102;DHT22;3081;50.584;7.032;2022-10-22T13:27:23;20.70;99.90
6102;DHT22;3081;50.584;7.032;2022-10-22T13:29:52;20.50;99.90
6102;DHT22;3081;50.584;7.032;2022-10-22T13:32:27;20.50;99.90
6102;DHT22;3081;50.584;7.032;2022-10-22T13:34:56;20.60;99.90
6102;DHT22;3081;50.584;7.032;2022-10-22T13:37:24;20.90;99.90
6102;DHT22;3081;50.584;7.032;2022-10-22T13:39:51;21.20;99.90
6102;DHT22;3081;50.584;7.032;2022-10-22T13:42:18;21.20;99.90
6102;DHT22;3081;50.584;7.032;2022-10-22T13:44:45;21.00;99.90
6102;DHT22;3081;50.584;7.032;2022-10-22T13:47:25;20.80;99.90
6102;DHT22;3081;50.584;7.032;2022-10-22T13:49:53;20.80;99.90
6102;DHT22;3081;50.584;7.032;2022-10-22T13:52:33;21.10;99.90
6102;DHT22;3081;50.584;7.032;2022-10-22T13:55:12;21.70;99.90
6102;DHT22;3081;50.584;7.032;2022-10-22T13:57:39;23.30;99.90
6102;DHT22;3081;50.584;7.032;2022-10-22T14:00:10;24.70;99.90
6102;DHT22;3081;50.584;7.032;2022-10-22T14:02:39;25.70;98.90
6102;DHT22;3081;50.584;7.032;2022-10-22T14:05:07;24.90;98.30
6102;DHT22;3081;50.584;7.032;2022-10-22T14:07:36;23.70;99.90
6102;DHT22;3081;50.584;7.032;2022-10-22T14:10:12;23.20;99.90
6102;DHT22;3081;50.584;7.032;2022-10-22T14:12:39;24.10;99.90
6102;DHT22;3081;50.584;7.032;2022-10-22T14:15:07;25.90;99.70
6102;DHT22;3081;50.584;7.032;2022-10-22T14:17:34;27.60;97.20
6102;DHT22;3081;50.584;7.032;2022-10-22T14:20:03;28.40;95.20
6102;DHT22;3081;50.584;7.032;2022-10-22T14:22:30;29.30;94.10
6102;DHT22;3081;50.584;7.032;2022-10-22T14:24:57;29.40;91.70
6102;DHT22;3081;50.584;7.032;2022-10-22T14:27:24;27.90;91.50
6102;DHT22;3081;50.584;7.032;2022-10-22T14:29:52;26.40;92.60
6102;DHT22;3081;50.584;7.032;2022-10-22T14:32:18;25.00;94.20
6102;DHT22;3081;50.584;7.032;2022-10-22T14:34:46;23.60;96.20
6102;DHT22;3081;50.584;7.032;2022-10-22T14:37:17;22.60;98.00
6102;DHT22;3081;50.584;7.032;2022-10-22T14:39:45;21.90;99.30
6102;DHT22;3081;50.584;7.032;2022-10-22T14:42:17;21.60;99.90
6102;DHT22;3081;50.584;7.032;2022-10-22T14:44:45;21.80;99.90
6102;DHT22;3081;50.584;7.032;2022-10-22T14:47:12;21.90;99.90
6102;DHT22;3081;50.584;7.032;2022-10-22T14:49:38;22.00;99.90
6102;DHT22;3081;50.584;7.032;2022-10-22T14:52:05;21.90;99.90
6102;DHT22;3081;50.584;7.032;2022-10-22T14:54:34;21.70;99.90
6102;DHT22;3081;50.584;7.032;2022-10-22T14:57:01;21.40;99.90
6102;DHT22;3081;50.584;7.032;2022-10-22T14:59:28;21.10;99.90
6102;DHT22;3081;50.584;7.032;2022-10-22T15:01:56;20.90;99.90
6102;DHT22;3081;50.584;7.032;2022-10-22T15:04:22;20.80;99.90
6102;DHT22;3081;50.584;7.032;2022-10-22T15:06:51;20.70;99.90
6102;DHT22;3081;50.584;7.032;2022-10-22T15:09:21;20.70;99.90
6102;DHT22;3081;50.584;7.032;2022-10-22T15:11:50;20.60;99.90
6102;DHT22;3081;50.584;7.032;2022-10-22T15:14:17;20.60;99.90
6102;DHT22;3081;50.584;7.032;2022-10-22T15:16:44;20.50;99.90
6102;DHT22;3081;50.584;7.032;2022-10-22T15:19:10;20.40;99.90
6102;DHT22;3081;50.584;7.032;2022-10-22T15:21:38;20.20;99.90
6102;DHT22;3081;50.584;7.032;2022-10-22T15:24:05;20.10;99.90
6102;DHT22;3081;50.584;7.032;2022-10-22T15:26:32;20.00;99.90
6102;DHT22;3081;50.584;7.032;2022-10-22T15:29:01;19.80;99.90
6102;DHT22;3081;50.584;7.032;2022-10-22T15:31:43;19.90;99.90
6102;DHT22;3081;50.584;7.032;2022-10-22T15:34:11;19.90;99.90
6102;DHT22;3081;50.584;7.032;2022-10-22T15:36:38;19.80;99.90
6102;DHT22;3081;50.584;7.032;2022-10-22T15:39:06;19.80;99.90
6102;DHT22;3081;50.584;7.032;2022-10-22T15:41:34;19.60;99.90
6102;DHT22;3081;50.584;7.032;2022-10-22T15:44:03;19.50;99.90
6102;DHT22;3081;50.584;7.032;2022-10-22T15:46:31;19.40;99.90
6102;DHT22;3081;50.584;7.032;2022-10-22T15:48:58;19.40;99.90
6102;DHT22;3081;50.584;7.032;2022-10-22T15:51:25;19.30;99.90
6102;DHT22;3081;50.584;7.032;2022-10-22T15:53:54;19.20;99.90
6102;DHT22;3081;50.584;7.032;2022-10-22T15:56:23;19.10;99.90
6102;DHT22;3081;50.584;7.032;2022-10-22T15:58:52;18.90;99.90
6102;DHT22;3081;50.584;7.032;2022-10-22T16:01:21;18.70;99.90
6102;DHT22;3081;50.584;7.032;2022-10-22T16:03:49;18.70;99.90
6102;DHT22;3081;50.584;7.032;2022-10-22T16:06:24;18.60;99.90
6102;DHT22;3081;50.584;7.032;2022-10-22T16:08:51;18.40;99.90
6102;DHT22;3081;50.584;7.032;2022-10-22T16:11:19;18.30;99.90
6102;DHT22;3081;50.584;7.032;2022-10-22T16:13:46;18.20;99.90
6102;DHT22;3081;50.584;7.032;2022-10-22T16:16:13;17.90;99.90
6102;DHT22;3081;50.584;7.032;2022-10-22T16:18:41;17.70;99.90
6102;DHT22;3081;50.584;7.032;2022-10-22T16:21:11;17.50;99.90
6102;DHT22;3081;50.584;7.032;2022-10-22T16:23:41;17.40;99.90
6102;DHT22;3081;50.584;7.032;2022-10-22T16:26:08;17.40;99.90